Time;durP1;ratioP1;P1;durP2;ratioP2;P2;SDS_P1;SDS_P2;PMS_P1;PMS_P2;Temp;Humidity;BMP_temperature;BMP_pressure;BME280_temperature;BME280_humidity;BME280_pressure;Samples;Min_cycle;Max_cycle;Signal;HPM_P1;HPM_P2
2023/10/07 00:01:25;;;;;;;13.60;4.20;;;16.60;99.90;;;;;;5012066;28;20455;-53
2023/10/07 00:03:53;;;;;;;6.80;3.83;;;16.60;99.90;;;;;;5013903;28;20471;-53
2023/10/07 00:06:22;;;;;;;8.60;3.43;;;16.60;99.90;;;;;;5017913;28;20989;-53
2023/10/07 00:08:50;;;;;;;10.17;4.37;;;16.70;99.90;;;;;;5012184;28;20460;-54
2023/10/07 00:11:17;;;;;;;8.80;4.10;;;16.70;99.90;;;;;;5011657;28;20502;-53
2023/10/07 00:13:44;;;;;;;4.33;3.23;;;16.60;99.90;;;;;;5018323;28;20471;-54
2023/10/07 00:16:17;;;;;;;7.23;4.13;;;16.70;99.90;;;;;;5017615;28;20494;-55
2023/10/07 00:18:43;;;;;;;5.33;3.87;;;16.70;99.90;;;;;;5012792;28;20455;-53
2023/10/07 00:21:15;;;;;;;7.70;3.33;;;16.70;99.90;;;;;;5004318;28;20464;-54
2023/10/07 00:23:42;;;;;;;8.27;3.67;;;16.60;99.90;;;;;;5000248;28;21057;-55
2023/10/07 00:26:13;;;;;;;6.90;3.90;;;16.70;99.90;;;;;;4992445;28;20476;-54
2023/10/07 00:28:44;;;;;;;13.00;3.90;;;16.70;99.90;;;;;;5005390;28;20482;-54
2023/10/07 00:31:13;;;;;;;7.90;3.63;;;16.70;99.90;;;;;;5011259;28;20460;-55
2023/10/07 00:33:50;;;;;;;6.70;3.60;;;16.70;99.90;;;;;;5011769;28;20459;-55
2023/10/07 00:36:33;;;;;;;7.20;3.63;;;16.60;99.90;;;;;;5003547;28;20834;-54
2023/10/07 00:39:00;;;;;;;6.70;3.20;;;16.70;99.90;;;;;;4999462;28;20925;-54
2023/10/07 00:41:31;;;;;;;8.83;4.10;;;16.70;99.90;;;;;;5012626;28;20444;-54
2023/10/07 00:44:07;;;;;;;9.23;4.20;;;16.70;99.90;;;;;;5012700;28;20925;-54
2023/10/07 00:46:35;;;;;;;6.93;3.27;;;16.70;99.90;;;;;;5012800;28;20460;-54
2023/10/07 00:49:09;;;;;;;10.50;4.53;;;16.70;99.90;;;;;;5004701;28;20460;-54
2023/10/07 00:51:46;;;;;;;9.40;4.67;;;16.70;99.90;;;;;;5003760;28;20484;-54
2023/10/07 00:54:18;;;;;;;14.93;4.20;;;16.80;99.90;;;;;;5001089;28;20447;-55
2023/10/07 00:56:50;;;;;;;9.17;4.43;;;16.70;99.90;;;;;;5012391;28;20447;-54
2023/10/07 00:59:19;;;;;;;12.70;4.47;;;16.70;99.90;;;;;;5012529;28;21003;-56
2023/10/07 01:01:49;;;;;;;8.33;4.40;;;16.70;99.90;;;;;;5012429;28;20432;-54
2023/10/07 01:04:16;;;;;;;10.00;3.73;;;16.80;99.90;;;;;;5004826;28;21064;-54
2023/10/07 01:06:45;;;;;;;23.73;5.23;;;16.70;99.90;;;;;;4995711;28;20452;-54
2023/10/07 01:09:14;;;;;;;12.13;4.60;;;16.70;99.90;;;;;;5000285;28;20444;-53
2023/10/07 01:11:44;;;;;;;11.73;4.40;;;16.80;99.90;;;;;;5010508;28;20953;-55
2023/10/07 01:14:12;;;;;;;11.53;4.00;;;16.80;99.90;;;;;;5008143;28;20464;-54
2023/10/07 01:16:42;;;;;;;8.40;4.07;;;16.80;99.90;;;;;;5012042;28;20444;-55
2023/10/07 01:19:27;;;;;;;11.23;4.63;;;16.80;99.90;;;;;;5010205;28;20470;-53
2023/10/07 01:21:55;;;;;;;11.83;4.70;;;16.80;99.90;;;;;;5008495;28;20877;-54
2023/10/07 01:27:02;;;;;;;18.50;5.30;;;16.80;99.90;;;;;;5045146;28;20979;-52
2023/10/07 01:29:28;;;;;;;10.63;4.87;;;16.80;99.90;;;;;;5047152;28;20461;-53
2023/10/07 01:32:00;;;;;;;9.27;3.63;;;16.80;99.90;;;;;;5039171;28;20532;-53
2023/10/07 01:34:29;;;;;;;11.83;4.13;;;16.80;99.90;;;;;;5037082;28;20549;-52
2023/10/07 01:36:57;;;;;;;12.47;4.50;;;16.80;99.90;;;;;;5042966;28;20446;-53
2023/10/07 01:39:24;;;;;;;23.23;4.80;;;16.80;99.90;;;;;;5031731;28;20466;-53
2023/10/07 01:41:50;;;;;;;10.53;4.40;;;16.80;99.90;;;;;;5045011;28;20442;-53
2023/10/07 01:44:24;;;;;;;16.40;4.40;;;16.80;99.90;;;;;;5049260;28;20452;-53
2023/10/07 01:46:55;;;;;;;8.30;4.10;;;16.80;99.90;;;;;;5042292;28;20451;-52
2023/10/07 01:49:22;;;;;;;8.50;4.53;;;16.80;99.90;;;;;;5040369;28;20902;-53
2023/10/07 01:51:52;;;;;;;9.00;4.27;;;16.80;99.90;;;;;;5040410;28;20948;-53
2023/10/07 01:54:20;;;;;;;10.47;5.40;;;16.80;99.90;;;;;;5048144;28;20497;-53
2023/10/07 01:56:52;;;;;;;14.03;5.13;;;16.80;99.90;;;;;;5051607;28;20469;-53
2023/10/07 01:59:21;;;;;;;11.50;5.10;;;16.70;99.90;;;;;;5051984;28;20500;-54
2023/10/07 02:01:53;;;;;;;11.23;4.43;;;16.80;99.90;;;;;;5044413;28;20463;-53
2023/10/07 02:04:26;;;;;;;12.57;5.50;;;16.80;99.90;;;;;;5023567;28;20525;-55
2023/10/07 02:06:54;;;;;;;11.63;4.30;;;16.80;99.90;;;;;;5051727;28;20481;-54
2023/10/07 02:09:24;;;;;;;10.07;4.23;;;16.80;99.90;;;;;;5051825;28;20481;-53
2023/10/07 02:11:53;;;;;;;14.53;4.70;;;16.80;99.90;;;;;;5043579;28;20446;-54
2023/10/07 02:14:24;;;;;;;10.60;4.70;;;16.80;99.90;;;;;;5051888;28;20919;-53
2023/10/07 02:16:51;;;;;;;12.27;5.10;;;16.80;99.90;;;;;;5032929;28;21029;-53
2023/10/07 02:19:28;;;;;;;9.70;4.57;;;16.80;99.90;;;;;;5042485;28;20459;-53
2023/10/07 02:21:59;;;;;;;11.03;4.80;;;16.80;99.90;;;;;;5032272;28;20447;-53
2023/10/07 02:24:29;;;;;;;7.60;4.53;;;16.80;99.90;;;;;;5032313;28;20481;-54
2023/10/07 02:26:59;;;;;;;14.30;4.97;;;16.80;99.90;;;;;;5032255;28;20442;-53
2023/10/07 02:29:28;;;;;;;11.43;4.47;;;16.80;99.90;;;;;;5031975;28;20467;-53
2023/10/07 02:32:05;;;;;;;11.77;5.03;;;16.80;99.90;;;;;;5027765;28;20466;-54
2023/10/07 02:34:33;;;;;;;15.20;4.40;;;16.80;99.90;;;;;;5032386;28;20466;-54
2023/10/07 02:37:11;;;;;;;11.37;4.87;;;16.80;99.90;;;;;;5029039;28;20834;-54
2023/10/07 02:39:45;;;;;;;10.83;5.20;;;16.80;99.90;;;;;;5031777;28;20452;-53
2023/10/07 02:42:13;;;;;;;9.10;4.33;;;16.70;99.90;;;;;;5029668;28;20455;-54
2023/10/07 02:44:41;;;;;;;11.57;5.23;;;16.70;99.90;;;;;;5020851;28;20462;-53
2023/10/07 02:47:11;;;;;;;10.47;4.50;;;16.70;99.90;;;;;;5023842;28;20460;-53
2023/10/07 02:49:39;;;;;;;15.30;5.57;;;16.70;99.90;;;;;;5036190;28;20538;-54
2023/10/07 02:52:06;;;;;;;12.80;4.67;;;16.70;99.90;;;;;;5030317;28;20490;-53
2023/10/07 02:54:33;;;;;;;11.73;5.63;;;16.70;99.90;;;;;;5034773;28;20513;-54
2023/10/07 02:57:07;;;;;;;12.37;5.07;;;16.80;99.90;;;;;;5029687;28;20490;-54
2023/10/07 02:59:36;;;;;;;14.73;4.37;;;16.70;99.90;;;;;;5031670;28;20830;-55
2023/10/07 03:02:33;;;;;;;11.70;4.80;;;16.80;99.90;;;;;;5033420;28;20837;-54
2023/10/07 03:05:13;;;;;;;16.60;4.77;;;16.70;99.90;;;;;;5028732;28;20494;-53
2023/10/07 03:07:42;;;;;;;9.50;4.53;;;16.70;99.90;;;;;;5032625;28;20458;-53
2023/10/07 03:10:16;;;;;;;10.00;5.43;;;16.70;99.90;;;;;;5043017;28;20517;-54
2023/10/07 03:12:47;;;;;;;10.97;4.80;;;16.70;99.90;;;;;;5024476;28;20473;-53
2023/10/07 03:15:28;;;;;;;13.30;5.50;;;16.70;99.90;;;;;;5026511;28;20505;-53
2023/10/07 03:17:57;;;;;;;11.50;4.87;;;16.70;99.90;;;;;;5029677;28;20629;-53
2023/10/07 03:20:30;;;;;;;8.53;4.80;;;16.70;99.90;;;;;;5038994;28;20465;-53
2023/10/07 03:23:15;;;;;;;14.03;4.80;;;16.70;99.90;;;;;;5032744;28;20466;-53
2023/10/07 03:26:05;;;;;;;7.53;4.97;;;16.70;99.90;;;;;;5024741;28;20510;-53
2023/10/07 03:28:35;;;;;;;33.33;5.30;;;16.70;99.90;;;;;;5033334;28;20952;-53
2023/10/07 03:31:08;;;;;;;12.00;4.70;;;16.70;99.90;;;;;;5031325;28;20473;-54
2023/10/07 03:33:44;;;;;;;18.83;5.40;;;16.70;99.90;;;;;;5042436;28;20493;-54
2023/10/07 03:36:30;;;;;;;12.50;5.43;;;16.60;99.90;;;;;;5038790;28;20472;-54
2023/10/07 03:39:10;;;;;;;12.47;4.73;;;16.60;99.90;;;;;;5037811;28;20462;-54
2023/10/07 03:41:37;;;;;;;8.73;4.60;;;16.60;99.90;;;;;;5042524;28;20549;-54
2023/10/07 03:44:03;;;;;;;18.37;5.43;;;16.60;99.90;;;;;;5048412;28;20442;-53
2023/10/07 03:46:30;;;;;;;12.40;5.17;;;16.60;99.90;;;;;;5035508;28;20883;-54
2023/10/07 03:48:58;;;;;;;9.67;4.67;;;16.60;99.90;;;;;;5050429;28;20442;-53
2023/10/07 03:51:30;;;;;;;9.97;4.87;;;16.60;99.90;;;;;;5046271;28;20450;-53
2023/10/07 03:54:00;;;;;;;8.17;4.20;;;16.60;99.90;;;;;;5038283;28;20816;-54
2023/10/07 03:56:27;;;;;;;16.13;5.23;;;16.70;99.90;;;;;;5050881;28;20469;-54
2023/10/07 03:58:55;;;;;;;8.40;4.93;;;16.60;99.90;;;;;;5031616;28;20906;-54
2023/10/07 04:01:26;;;;;;;13.80;4.90;;;16.60;99.90;;;;;;5042197;28;20820;-53
2023/10/07 04:03:59;;;;;;;7.80;4.50;;;16.60;99.90;;;;;;5035343;28;20447;-54
2023/10/07 04:06:31;;;;;;;9.50;4.70;;;16.60;99.90;;;;;;5051071;28;20473;-54
2023/10/07 04:09:05;;;;;;;11.90;4.70;;;16.60;99.90;;;;;;5045092;28;20450;-53
2023/10/07 04:11:33;;;;;;;6.93;4.20;;;16.60;99.90;;;;;;5041251;28;20951;-54
2023/10/07 04:14:07;;;;;;;10.00;4.40;;;16.60;99.90;;;;;;5038837;28;20898;-54
2023/10/07 04:16:34;;;;;;;15.60;4.60;;;16.60;99.90;;;;;;5025745;28;20488;-52
2023/10/07 04:19:30;;;;;;;18.33;5.33;;;16.60;99.90;;;;;;5026938;28;20965;-53
2023/10/07 04:21:56;;;;;;;8.83;4.20;;;16.60;99.90;;;;;;5030927;28;20828;-52
2023/10/07 04:24:24;;;;;;;15.60;5.37;;;16.60;99.90;;;;;;5053334;28;20442;-54
2023/10/07 04:26:54;;;;;;;8.23;4.77;;;16.60;99.90;;;;;;5039234;28;21061;-53
2023/10/07 04:29:22;;;;;;;8.70;4.40;;;16.60;99.90;;;;;;5025044;28;20961;-53
2023/10/07 04:31:51;;;;;;;13.00;4.30;;;16.60;99.90;;;;;;5024611;28;20829;-54
2023/10/07 04:34:18;;;;;;;7.90;4.33;;;16.50;99.90;;;;;;5031795;28;20482;-53
2023/10/07 04:37:10;;;;;;;17.50;4.67;;;16.50;99.90;;;;;;5032236;28;20536;-54
2023/10/07 04:39:38;;;;;;;11.50;4.63;;;16.60;99.90;;;;;;5029477;28;20815;-53
2023/10/07 04:42:05;;;;;;;11.57;4.80;;;16.60;99.90;;;;;;5025162;28;20886;-53
2023/10/07 04:47:34;;;;;;;6.97;4.33;;;16.50;99.90;;;;;;5053260;28;20869;-53
2023/10/07 04:50:06;;;;;;;13.90;4.73;;;16.50;99.90;;;;;;5031127;28;20494;-53
2023/10/07 04:52:33;;;;;;;16.00;5.07;;;16.50;99.90;;;;;;5049757;28;20446;-54
2023/10/07 04:55:02;;;;;;;13.10;5.70;;;16.50;99.90;;;;;;5033489;28;20487;-53
2023/10/07 04:57:44;;;;;;;15.70;5.70;;;16.50;99.90;;;;;;5040402;28;20462;-53
2023/10/07 05:00:27;;;;;;;13.23;4.97;;;16.50;99.90;;;;;;5053050;28;20477;-53
2023/10/07 05:02:57;;;;;;;10.63;4.70;;;16.50;99.90;;;;;;5028186;28;20439;-55
2023/10/07 05:05:24;;;;;;;10.00;5.07;;;16.50;99.90;;;;;;5035401;28;20485;-53
2023/10/07 05:07:50;;;;;;;13.03;5.50;;;16.50;99.90;;;;;;5024627;28;20462;-54
2023/10/07 05:10:20;;;;;;;9.77;4.37;;;16.50;99.90;;;;;;5034524;28;20490;-53
2023/10/07 05:12:46;;;;;;;10.73;4.80;;;16.50;99.90;;;;;;5040139;28;20319;-53
2023/10/07 05:15:14;;;;;;;8.23;4.60;;;16.50;99.90;;;;;;5032756;28;20467;-53
2023/10/07 05:17:40;;;;;;;8.77;5.10;;;16.50;99.90;;;;;;5047869;28;20660;-53
2023/10/07 05:20:26;;;;;;;10.30;4.53;;;16.40;99.90;;;;;;5030926;28;20972;-53
2023/10/07 05:22:53;;;;;;;11.90;4.80;;;16.50;99.90;;;;;;5017295;28;20258;-53
2023/10/07 05:25:21;;;;;;;8.10;4.30;;;16.50;99.90;;;;;;5022867;28;20490;-53
2023/10/07 05:27:50;;;;;;;10.03;5.30;;;16.50;99.90;;;;;;5024566;28;20441;-54
2023/10/07 05:30:18;;;;;;;12.37;4.97;;;16.50;99.90;;;;;;5048040;28;20536;-53
2023/10/07 05:32:46;;;;;;;8.97;4.73;;;16.50;99.90;;;;;;5042894;28;20963;-53
2023/10/07 05:35:15;;;;;;;11.57;4.83;;;16.50;99.90;;;;;;5028046;28;20967;-53
2023/10/07 05:37:44;;;;;;;11.50;5.33;;;16.50;99.90;;;;;;5035068;28;20474;-53
2023/10/07 05:40:16;;;;;;;19.83;4.60;;;16.50;99.90;;;;;;5044536;28;20460;-52
2023/10/07 05:42:45;;;;;;;8.40;4.33;;;16.50;99.90;;;;;;5039611;28;20479;-52
2023/10/07 05:45:14;;;;;;;9.03;4.47;;;16.50;99.90;;;;;;5039669;28;20490;-52
2023/10/07 05:47:43;;;;;;;15.50;5.23;;;16.50;99.90;;;;;;5028400;28;20840;-51
2023/10/07 05:50:10;;;;;;;18.90;4.80;;;16.50;99.90;;;;;;5026788;28;20461;-52
2023/10/07 05:52:36;;;;;;;13.80;4.20;;;16.50;99.90;;;;;;5027304;28;20460;-52
2023/10/07 05:55:03;;;;;;;6.67;3.93;;;16.50;99.90;;;;;;5027641;28;20493;-51
2023/10/07 05:57:30;;;;;;;9.73;4.83;;;16.50;99.90;;;;;;5029961;28;20864;-52
2023/10/07 05:59:58;;;;;;;14.90;5.47;;;16.50;99.90;;;;;;5030283;28;20474;-52
2023/10/07 06:02:26;;;;;;;9.07;4.93;;;16.50;99.90;;;;;;5032710;28;20484;-52
2023/10/07 06:04:52;;;;;;;8.47;4.80;;;16.50;99.90;;;;;;5024123;28;20498;-52
2023/10/07 06:07:21;;;;;;;13.40;6.60;;;16.50;99.90;;;;;;5034748;28;20454;-52
2023/10/07 06:09:48;;;;;;;9.27;4.53;;;16.50;99.90;;;;;;5046731;28;20529;-52
2023/10/07 06:12:15;;;;;;;13.80;6.27;;;16.50;99.90;;;;;;5051747;28;20446;-52
2023/10/07 06:14:42;;;;;;;11.20;5.50;;;16.50;99.90;;;;;;5046935;28;20481;-52
2023/10/07 06:17:11;;;;;;;11.17;4.90;;;16.50;99.60;;;;;;5037804;28;20455;-52
2023/10/07 06:19:40;;;;;;;13.30;5.30;;;16.50;98.20;;;;;;5031048;28;20463;-52
2023/10/07 06:22:12;;;;;;;12.37;5.33;;;16.50;96.30;;;;;;5038388;28;20466;-51
2023/10/07 06:24:40;;;;;;;9.73;4.80;;;16.50;94.80;;;;;;5020966;28;20482;-52
2023/10/07 06:27:11;;;;;;;9.90;4.87;;;16.40;90.80;;;;;;5028856;28;20542;-52
2023/10/07 06:29:41;;;;;;;16.53;5.43;;;16.40;87.80;;;;;;5032642;28;20465;-51
2023/10/07 06:32:28;;;;;;;7.70;4.60;;;16.40;82.80;;;;;;5036142;28;20445;-51
2023/10/07 06:34:56;;;;;;;15.43;4.73;;;16.30;78.10;;;;;;5028661;28;20897;-53
2023/10/07 06:37:28;;;;;;;10.80;5.30;;;16.30;77.50;;;;;;5038441;28;20466;-54
2023/10/07 06:39:57;;;;;;;10.73;5.10;;;16.30;76.50;;;;;;5027375;28;20471;-55
2023/10/07 06:42:24;;;;;;;13.07;4.53;;;16.30;76.90;;;;;;5029918;28;20463;-54
2023/10/07 06:44:53;;;;;;;11.27;5.10;;;16.30;76.50;;;;;;5036942;28;20923;-55
2023/10/07 06:47:24;;;;;;;30.57;5.37;;;16.30;75.80;;;;;;5034417;28;20459;-54
2023/10/07 06:49:52;;;;;;;12.40;5.13;;;16.30;76.50;;;;;;5025837;28;20469;-54
2023/10/07 06:52:20;;;;;;;12.17;4.80;;;16.30;77.50;;;;;;5030991;28;20458;-55
2023/10/07 06:54:47;;;;;;;7.97;4.60;;;16.30;77.90;;;;;;5025612;28;20490;-53
2023/10/07 06:57:14;;;;;;;11.03;5.10;;;16.30;78.20;;;;;;5035811;28;20459;-53
2023/10/07 06:59:45;;;;;;;13.07;4.73;;;16.30;77.60;;;;;;5033019;28;20535;-53
2023/10/07 07:02:18;;;;;;;5.80;3.80;;;16.30;76.60;;;;;;5032668;28;20466;-54
2023/10/07 07:04:47;;;;;;;15.67;4.37;;;16.30;76.10;;;;;;5034236;28;20474;-53
2023/10/07 07:07:16;;;;;;;8.40;4.47;;;16.40;74.20;;;;;;5030302;28;20520;-53
2023/10/07 07:09:58;;;;;;;8.10;4.17;;;16.40;68.80;;;;;;5027970;28;20530;-54
2023/10/07 07:12:26;;;;;;;12.13;5.27;;;16.40;66.00;;;;;;5038543;28;20454;-54
2023/10/07 07:14:59;;;;;;;6.70;4.17;;;16.30;56.60;;;;;;5028910;28;20486;-54
2023/10/07 07:17:36;;;;;;;12.90;5.73;;;16.30;53.00;;;;;;5036674;28;20466;-54
2023/10/07 07:22:50;;;;;;;11.70;4.30;;;16.20;40.90;;;;;;5025158;28;20590;-54
2023/10/07 07:25:22;;;;;;;7.63;4.07;;;16.20;36.80;;;;;;5034791;22;20496;-52
2023/10/07 07:27:49;;;;;;;9.30;4.10;;;16.20;30.90;;;;;;4990579;28;20479;-53
2023/10/07 07:30:29;;;;;;;7.03;3.70;;;16.10;28.60;;;;;;4992745;28;20460;-53
2023/10/07 07:32:58;;;;;;;10.13;4.00;;;16.10;25.60;;;;;;4993929;28;20908;-53
2023/10/07 07:35:38;;;;;;;7.53;4.10;;;16.10;73.70;;;;;;4989021;28;20554;-53
2023/10/07 07:38:11;;;;;;;11.07;4.23;;;16.10;91.10;;;;;;4985404;28;20476;-54
2023/10/07 07:40:41;;;;;;;15.10;4.40;;;16.10;96.90;;;;;;4987332;28;20475;-54
2023/10/07 07:43:08;;;;;;;9.50;4.20;;;16.10;99.90;;;;;;4985851;28;20469;-53
2023/10/07 07:45:36;;;;;;;9.67;4.50;;;16.20;99.90;;;;;;4991156;28;20488;-54
2023/10/07 07:48:06;;;;;;;6.30;4.00;;;16.20;99.90;;;;;;4992661;28;20931;-53
2023/10/07 07:50:35;;;;;;;11.13;3.67;;;16.20;99.90;;;;;;4990200;28;20614;-63
2023/10/07 07:53:06;;;;;;;4.07;3.17;;;16.20;99.90;;;;;;4986363;28;20475;-61
2023/10/07 07:55:34;;;;;;;9.37;3.43;;;16.20;99.90;;;;;;4991411;28;20488;-61
2023/10/07 07:58:02;;;;;;;9.13;4.10;;;16.20;99.90;;;;;;4986982;28;20920;-59
2023/10/07 08:00:31;;;;;;;3.27;2.80;;;16.20;99.90;;;;;;4986443;28;20465;-55
2023/10/07 08:02:58;;;;;;;12.87;4.00;;;16.20;99.90;;;;;;4982275;28;20870;-57
2023/10/07 08:05:28;;;;;;;10.40;4.00;;;16.20;99.90;;;;;;4983498;28;20490;-57
2023/10/07 08:07:58;;;;;;;5.40;3.37;;;16.30;99.90;;;;;;4986676;28;20476;-56
2023/10/07 08:10:26;;;;;;;6.90;3.37;;;16.30;99.90;;;;;;4984543;28;20911;-55
2023/10/07 08:12:58;;;;;;;3.77;3.17;;;16.30;99.90;;;;;;4989090;28;20511;-58
2023/10/07 08:15:25;;;;;;;8.10;2.83;;;16.30;99.90;;;;;;4988619;28;20480;-56
2023/10/07 08:17:52;;;;;;;5.93;3.10;;;16.30;99.90;;;;;;4984134;28;20488;-55
2023/10/07 08:20:26;;;;;;;9.57;3.00;;;16.30;99.90;;;;;;4987116;28;20468;-61
2023/10/07 08:22:54;;;;;;;16.37;3.23;;;16.30;99.90;;;;;;4988402;28;20522;-61
2023/10/07 08:25:37;;;;;;;5.67;3.10;;;16.30;99.90;;;;;;4990500;28;20488;-63
2023/10/07 08:28:18;;;;;;;9.77;3.40;;;16.30;99.90;;;;;;4982246;28;20465;-53
2023/10/07 08:30:46;;;;;;;6.60;3.10;;;16.30;99.90;;;;;;4984470;28;20559;-61
2023/10/07 08:33:15;;;;;;;9.53;3.40;;;16.30;99.90;;;;;;4988937;28;20523;-55
2023/10/07 08:35:43;;;;;;;14.67;3.70;;;16.30;99.90;;;;;;4988124;28;20534;-60
2023/10/07 08:38:21;;;;;;;6.73;3.20;;;16.30;99.90;;;;;;4991428;28;20465;-60
2023/10/07 08:41:04;;;;;;;4.70;2.87;;;16.30;99.90;;;;;;4990478;28;20473;-60
2023/10/07 08:43:37;;;;;;;6.93;3.80;;;16.20;99.90;;;;;;4983143;28;20833;-60
2023/10/07 08:46:08;;;;;;;4.97;3.57;;;16.20;99.90;;;;;;4975679;28;20476;-59
2023/10/07 08:48:38;;;;;;;6.17;3.80;;;16.20;99.90;;;;;;4990422;28;20471;-62
2023/10/07 08:51:13;;;;;;;6.00;3.63;;;16.20;99.90;;;;;;4984676;28;20470;-62
2023/10/07 08:53:39;;;;;;;8.43;3.40;;;16.20;99.90;;;;;;4982913;28;20464;-61
2023/10/07 08:56:09;;;;;;;8.37;3.63;;;16.20;99.90;;;;;;4987686;28;20850;-62
2023/10/07 08:58:41;;;;;;;8.83;4.10;;;16.30;99.90;;;;;;4989013;28;20460;-60
2023/10/07 09:01:17;;;;;;;7.00;3.87;;;16.30;99.90;;;;;;4986253;28;20465;-61
2023/10/07 09:03:47;;;;;;;8.23;3.43;;;16.30;99.90;;;;;;4991471;28;20467;-61
2023/10/07 09:06:14;;;;;;;5.53;3.20;;;16.30;99.90;;;;;;4991564;28;20527;-63
2023/10/07 09:08:41;;;;;;;5.47;3.40;;;16.40;99.90;;;;;;4988514;28;20487;-61
2023/10/07 09:11:12;;;;;;;7.40;4.47;;;16.30;99.90;;;;;;4984547;28;21062;-61
2023/10/07 09:13:39;;;;;;;6.00;3.83;;;16.40;99.90;;;;;;4991323;28;20472;-60
2023/10/07 09:16:07;;;;;;;6.80;3.03;;;16.40;99.90;;;;;;4984216;28;20547;-61
2023/10/07 09:18:39;;;;;;;10.70;4.07;;;16.50;99.90;;;;;;4991925;28;20528;-62
2023/10/07 09:21:09;;;;;;;14.43;4.73;;;16.50;99.90;;;;;;4989940;28;22457;-62
2023/10/07 09:23:43;;;;;;;5.90;3.93;;;16.50;99.90;;;;;;4988697;28;20472;-63
2023/10/07 09:26:21;;;;;;;14.50;4.10;;;16.40;99.90;;;;;;4987045;28;20971;-62
2023/10/07 09:28:51;;;;;;;8.30;4.50;;;16.40;99.90;;;;;;4973116;28;20445;-62
2023/10/07 09:31:20;;;;;;;8.03;4.33;;;16.30;99.90;;;;;;4983869;28;20512;-61
2023/10/07 09:33:49;;;;;;;9.33;3.70;;;16.30;99.90;;;;;;4987971;28;20942;-62
2023/10/07 09:36:23;;;;;;;6.20;3.60;;;16.20;99.90;;;;;;4983288;28;20492;-61
2023/10/07 09:39:05;;;;;;;6.50;4.43;;;16.20;99.90;;;;;;4986634;28;20471;-60
2023/10/07 09:41:32;;;;;;;10.73;4.60;;;16.20;99.90;;;;;;4987216;28;20460;-60
2023/10/07 09:44:00;;;;;;;7.47;4.20;;;16.10;99.90;;;;;;4982048;28;20461;-60
2023/10/07 09:46:27;;;;;;;10.10;4.07;;;16.10;99.90;;;;;;4991136;28;20484;-61
2023/10/07 09:48:57;;;;;;;9.83;5.13;;;16.10;99.90;;;;;;4991354;28;20491;-62
2023/10/07 09:51:28;;;;;;;9.63;5.50;;;16.00;99.90;;;;;;4980135;28;20492;-62
2023/10/07 09:54:16;;;;;;;9.67;4.90;;;16.00;99.90;;;;;;4989905;28;20982;-62
2023/10/07 09:57:07;;;;;;;8.73;5.00;;;16.00;99.90;;;;;;4987898;28;20487;-62
2023/10/07 09:59:48;;;;;;;15.73;6.67;;;15.90;99.90;;;;;;4993723;28;20828;-62
2023/10/07 10:02:33;;;;;;;16.83;6.40;;;15.90;99.90;;;;;;4990074;28;20464;-63
2023/10/07 10:05:25;;;;;;;9.70;6.80;;;15.90;99.90;;;;;;4991146;28;20490;-62
2023/10/07 10:08:11;;;;;;;12.10;6.27;;;15.80;99.90;;;;;;4996854;28;20464;-62
2023/10/07 10:10:44;;;;;;;11.90;6.60;;;15.80;99.90;;;;;;4995076;28;20464;-62
2023/10/07 10:13:28;;;;;;;17.40;7.87;;;15.80;99.90;;;;;;4996898;28;20468;-62
2023/10/07 10:15:59;;;;;;;14.73;7.33;;;15.80;99.90;;;;;;4985566;28;20857;-63
2023/10/07 10:18:38;;;;;;;18.13;8.30;;;15.70;99.90;;;;;;4983680;28;20448;-63
2023/10/07 10:21:09;;;;;;;20.67;8.23;;;15.70;99.90;;;;;;4993697;28;20539;-62
2023/10/07 10:23:37;;;;;;;24.60;8.13;;;15.70;99.90;;;;;;4990649;28;20807;-62
2023/10/07 10:26:14;;;;;;;12.03;8.53;;;15.70;99.90;;;;;;4997553;28;20499;-62
2023/10/07 10:28:43;;;;;;;11.90;9.00;;;15.70;99.90;;;;;;4991888;28;20460;-63
2023/10/07 10:31:22;;;;;;;17.93;9.63;;;15.70;99.90;;;;;;4990007;28;20478;-61
2023/10/07 10:33:49;;;;;;;16.63;10.30;;;15.70;99.90;;;;;;4989345;28;20455;-61
2023/10/07 10:36:21;;;;;;;17.10;9.13;;;15.60;99.90;;;;;;4993294;28;21005;-61
2023/10/07 10:38:48;;;;;;;20.10;10.30;;;15.70;99.90;;;;;;4991468;28;20470;-62
2023/10/07 10:41:15;;;;;;;16.23;9.10;;;15.60;99.90;;;;;;4991756;28;20464;-64
2023/10/07 10:43:43;;;;;;;15.40;9.40;;;15.60;99.90;;;;;;4992547;28;20482;-64
2023/10/07 10:46:10;;;;;;;23.27;9.20;;;15.70;99.90;;;;;;4983326;28;20472;-65
2023/10/07 10:48:39;;;;;;;15.23;8.90;;;15.70;99.90;;;;;;4983199;28;20444;-64
2023/10/07 10:51:06;;;;;;;14.70;9.33;;;15.70;99.90;;;;;;4989175;28;20838;-65
2023/10/07 10:53:33;;;;;;;21.47;9.77;;;15.70;99.90;;;;;;4981682;28;20999;-64
2023/10/07 10:56:00;;;;;;;19.53;9.30;;;15.60;99.90;;;;;;4983802;28;20591;-64
2023/10/07 10:58:26;;;;;;;15.17;9.33;;;15.70;99.90;;;;;;4994688;28;20452;-64
2023/10/07 11:00:55;;;;;;;14.50;9.03;;;15.70;99.90;;;;;;4993269;28;20479;-65
2023/10/07 11:03:21;;;;;;;17.70;9.80;;;15.60;99.90;;;;;;4997391;28;20531;-63
2023/10/07 11:05:49;;;;;;;22.37;11.40;;;15.60;99.90;;;;;;4993587;28;20487;-64
2023/10/07 11:08:22;;;;;;;15.23;11.33;;;15.50;99.90;;;;;;4986013;28;20461;-63
2023/10/07 11:10:50;;;;;;;20.10;12.20;;;15.50;99.90;;;;;;4987636;28;20464;-63
2023/10/07 11:13:17;;;;;;;21.67;12.80;;;15.50;99.90;;;;;;4976286;28;20465;-64
2023/10/07 11:15:58;;;;;;;21.80;12.37;;;15.50;99.90;;;;;;4989399;28;20492;-63
2023/10/07 11:18:28;;;;;;;14.37;11.73;;;15.50;99.90;;;;;;4987082;28;20461;-64
2023/10/07 11:20:55;;;;;;;18.63;11.70;;;15.50;99.90;;;;;;4987795;28;20476;-62
2023/10/07 11:23:21;;;;;;;19.27;13.83;;;15.50;99.90;;;;;;4988193;28;20446;-63
2023/10/07 11:25:50;;;;;;;21.00;13.77;;;15.50;99.90;;;;;;4985764;28;20594;-63
2023/10/07 11:28:22;;;;;;;21.73;15.03;;;15.50;99.90;;;;;;4984928;28;20460;-61
2023/10/07 11:30:51;;;;;;;16.60;12.60;;;15.50;99.90;;;;;;4990507;28;20464;-62
2023/10/07 11:33:20;;;;;;;27.30;11.87;;;15.50;99.90;;;;;;4990585;28;20842;-63
2023/10/07 11:35:58;;;;;;;23.07;13.33;;;15.50;99.90;;;;;;4989715;28;20505;-62
2023/10/07 11:38:26;;;;;;;21.83;12.60;;;15.50;99.90;;;;;;4990830;28;20895;-63
2023/10/07 11:40:52;;;;;;;18.63;13.10;;;15.50;99.90;;;;;;4983025;28;20930;-62
2023/10/07 11:43:19;;;;;;;18.40;14.00;;;15.50;99.90;;;;;;4992352;28;20536;-62
2023/10/07 11:45:47;;;;;;;17.80;13.33;;;15.50;99.90;;;;;;4991918;28;20480;-63
2023/10/07 11:48:14;;;;;;;20.37;13.60;;;15.50;99.90;;;;;;4988110;28;20889;-63
2023/10/07 11:50:46;;;;;;;19.23;14.30;;;15.50;99.90;;;;;;4989579;28;20487;-63
2023/10/07 11:53:13;;;;;;;19.37;14.70;;;15.50;99.90;;;;;;4985679;28;20984;-63
2023/10/07 11:55:39;;;;;;;19.67;14.83;;;15.50;99.90;;;;;;4992792;28;20895;-63
2023/10/07 11:58:08;;;;;;;19.20;14.17;;;15.50;99.90;;;;;;4982357;28;20465;-61
2023/10/07 12:00:35;;;;;;;18.60;14.40;;;15.50;99.90;;;;;;4982775;28;20460;-62
2023/10/07 12:03:06;;;;;;;18.67;14.00;;;15.50;99.90;;;;;;4990038;28;20444;-61
2023/10/07 12:05:33;;;;;;;20.90;15.33;;;15.50;99.90;;;;;;4993029;28;20468;-62
2023/10/07 12:08:02;;;;;;;23.27;15.50;;;15.50;99.90;;;;;;4988255;28;20461;-62
2023/10/07 12:10:29;;;;;;;27.47;16.20;;;15.50;99.90;;;;;;4984298;28;20555;-62
2023/10/07 12:12:58;;;;;;;26.00;16.30;;;15.50;99.90;;;;;;4984377;28;20468;-62
2023/10/07 12:15:25;;;;;;;18.23;15.07;;;15.50;99.90;;;;;;4979835;28;20485;-62
2023/10/07 12:17:52;;;;;;;23.07;14.90;;;15.50;99.90;;;;;;4983379;28;20471;-62
2023/10/07 12:20:20;;;;;;;20.00;15.10;;;15.50;99.90;;;;;;4985371;28;20469;-61
2023/10/07 12:22:47;;;;;;;21.77;15.30;;;15.50;99.90;;;;;;4983727;28;20472;-61
2023/10/07 12:25:16;;;;;;;24.57;17.37;;;15.50;99.90;;;;;;4987258;28;20542;-63
2023/10/07 12:27:43;;;;;;;20.77;16.57;;;15.50;99.90;;;;;;4981433;28;20457;-61
2023/10/07 12:30:11;;;;;;;21.13;15.40;;;15.50;99.90;;;;;;4991587;28;20963;-62
2023/10/07 12:32:39;;;;;;;25.40;15.47;;;15.50;99.90;;;;;;4991296;28;21265;-61
2023/10/07 12:35:09;;;;;;;22.80;14.53;;;15.50;99.90;;;;;;4986690;28;20543;-61
2023/10/07 12:37:38;;;;;;;20.70;16.13;;;15.50;99.90;;;;;;4978726;28;20465;-61
2023/10/07 12:40:05;;;;;;;23.90;15.60;;;15.50;99.90;;;;;;4988479;28;20460;-62
2023/10/07 12:42:39;;;;;;;20.77;15.70;;;15.50;99.90;;;;;;4985756;28;20464;-55
2023/10/07 12:45:07;;;;;;;26.50;16.33;;;15.50;99.90;;;;;;4983721;28;20539;-55
2023/10/07 12:47:34;;;;;;;27.53;16.47;;;15.50;99.90;;;;;;4989691;28;20449;-55
2023/10/07 12:50:20;;;;;;;16.93;14.43;;;15.60;99.90;;;;;;4992069;28;20515;-55
2023/10/07 12:52:47;;;;;;;24.73;15.30;;;15.50;99.90;;;;;;4979568;28;20465;-55
2023/10/07 12:55:13;;;;;;;23.97;15.53;;;15.60;99.90;;;;;;4988297;28;20540;-56
2023/10/07 12:57:41;;;;;;;23.43;17.27;;;15.60;99.90;;;;;;4986944;28;20543;-56
2023/10/07 13:00:19;;;;;;;22.27;16.87;;;15.60;99.90;;;;;;4988694;28;20460;-55
2023/10/07 13:02:46;;;;;;;22.53;17.17;;;15.60;99.90;;;;;;4989604;28;20970;-55
2023/10/07 13:05:18;;;;;;;26.03;17.10;;;15.50;99.90;;;;;;4990702;28;20464;-55